首页
METAR-TAF:

METAR-TAF

机场 :

阿勒馬克圖姆國際機場

杜拜, 阿拉伯联合酋长国

纬度: 24-53-49N, 经度: 55-09-40E, 海拔: 35米

当前天气观测

该预报发布于56分钟前的08:00 UTC
风速8节,风向东南
温度 36°C
湿度 16%
气压 1012 hPa
能见度10公里或以上
1500米以下无云,无积雨云

METAR: OMDW 030800Z 14008KT CAVOK 36/06 Q1012 NOSIG

时间: 12:56 (08:56 UTC)

预报

该预报发布于4小时和5分钟前的04:51 UTC
预报有效从03日的 06点(UTC)到 04日的 12点(UTC)
风速5节,风向东转东南
能見度: 8000
成为
从 03日的 10点(UTC)到 03日的 12点(UTC)
风速15节,风向北转西北
几率 30% :
短暂存在
从 03日的 10点(UTC)到 03日的 13点(UTC)
风速18节,风向北转西北,有时为28节阵风
能見度: 1500
高吹尘
成为
从 03日的 16点(UTC)到 03日的 18点(UTC)
风速8节,风向
成为
从 04日的 03点(UTC)到 04日的 05点(UTC)
风速15节,风向
成为
从 04日的 10点(UTC)到 04日的 12点(UTC)
风速15节,风向北转西北

TAF: OMDW 030451Z 0306/0412 12005KT 8000 NSC BECMG 0310/0312 34015KT PROB30 TEMPO 0310/0313 34018G28KT 1500 BLDU BECMG 0316/0318 09008KT BECMG 0403/0405 17015KT BECMG 0410/0412 34015KT

超过4000个机场的气象观测和天气预报(METAR&TAF报告)。

可查询的气象台以黄色和红色小点在地图上表示。

将鼠标移到小点上方,可查看气象台名称。

然后点击查看天气观测和预报。

如需切换地图:点击带黑十字的绿色按钮放大地图;点击带横线的绿色按钮缩小地图;或者点击绿色箭头查看邻近地区的地图。


METAR-TAF: